Time;durP1;ratioP1;P1;durP2;ratioP2;P2;SDS_P1;SDS_P2;PMS_P1;PMS_P2;Temp;Humidity;BMP_temperature;BMP_pressure;BME280_temperature;BME280_humidity;BME280_pressure;Samples;Min_cycle;Max_cycle;Signal;HPM_P1;HPM_P2
2021/11/08 00:00:08;;;;;;;13.18;4.85;;;;;;;4.65;97.32;101285.56;682090;28;1096;-50
2021/11/08 00:00:29;;;;;;;12.88;4.65;;;;;;;4.69;97.45;101284.81;680873;28;3530;-51
2021/11/08 00:00:53;;;;;;;11.02;5.20;;;;;;;4.66;96.73;101283.88;681031;28;4932;-52
2021/11/08 00:01:16;;;;;;;11.55;4.40;;;;;;;4.65;96.85;101287.28;682082;28;4603;-53
2021/11/08 00:01:38;;;;;;;13.40;4.50;;;;;;;4.59;97.03;101288.84;683235;28;1148;-55
2021/11/08 00:02:02;;;;;;;13.88;4.95;;;;;;;4.55;96.94;101289.59;682503;28;1815;-51
2021/11/08 00:02:23;;;;;;;12.32;4.50;;;;;;;4.51;97.72;101284.28;686561;28;1072;-52
2021/11/08 00:02:45;;;;;;;11.27;4.38;;;;;;;4.52;97.89;101284.34;685399;28;1091;-54
2021/11/08 00:03:09;;;;;;;12.00;4.55;;;;;;;4.53;97.94;101285.22;685319;28;1290;-50
2021/11/08 00:03:34;;;;;;;12.02;4.38;;;;;;;4.52;97.40;101288.66;683706;28;2141;-53
2021/11/08 00:03:55;;;;;;;12.35;4.80;;;;;;;4.51;97.43;101286.88;685297;28;3022;-51
2021/11/08 00:04:15;;;;;;;12.70;4.67;;;;;;;4.51;97.51;101290.34;682608;28;4454;-51
2021/11/08 00:04:36;;;;;;;11.60;4.17;;;;;;;4.52;98.00;101288.66;682379;28;1195;-50
2021/11/08 00:04:56;;;;;;;12.90;4.70;;;;;;;4.49;97.82;101288.56;682562;28;1143;-52
2021/11/08 00:05:17;;;;;;;13.27;4.82;;;;;;;4.50;98.11;101285.13;683911;28;1451;-51
2021/11/08 00:05:41;;;;;;;12.65;4.70;;;;;;;4.52;97.82;101283.47;680123;28;1068;-53
2021/11/08 00:06:05;;;;;;;12.20;4.32;;;;;;;4.55;97.74;101287.00;681134;28;1317;-52
2021/11/08 00:06:25;;;;;;;12.70;4.40;;;;;;;4.58;97.34;101288.81;680916;29;1132;-55
2021/11/08 00:06:46;;;;;;;12.77;4.50;;;;;;;4.55;97.56;101291.31;679807;28;1188;-50
2021/11/08 00:07:06;;;;;;;12.43;4.28;;;;;;;4.50;97.74;101286.03;681929;28;1239;-50
2021/11/08 00:07:27;;;;;;;11.60;4.40;;;;;;;4.46;97.78;101291.94;683065;28;4549;-54
2021/11/08 00:07:52;;;;;;;14.43;4.57;;;;;;;4.42;97.32;101288.38;685736;28;1043;-54
2021/11/08 00:08:15;;;;;;;13.07;4.53;;;;;;;4.37;97.34;101286.47;684511;28;1174;-54
2021/11/08 00:08:37;;;;;;;11.80;4.40;;;;;;;4.39;98.18;101290.88;685440;28;1387;-52
2021/11/08 00:08:58;;;;;;;11.93;4.55;;;;;;;4.39;97.80;101284.81;682744;28;1243;-51
2021/11/08 00:09:19;;;;;;;10.30;4.33;;;;;;;4.38;97.72;101289.09;684311;28;1151;-51
2021/11/08 00:09:42;;;;;;;12.75;5.03;;;;;;;4.35;98.06;101283.84;681134;28;1084;-50
2021/11/08 00:10:06;;;;;;;11.23;5.00;;;;;;;4.37;98.33;101286.47;681454;29;1127;-54
2021/11/08 00:10:33;;;;;;;10.23;4.65;;;;;;;4.42;98.66;101288.38;679370;29;4329;-51
2021/11/08 00:10:54;;;;;;;12.35;4.60;;;;;;;4.34;98.59;101284.66;680259;28;3211;-51
2021/11/08 00:11:15;;;;;;;13.63;4.80;;;;;;;4.28;98.66;101279.31;682147;28;4243;-52
2021/11/08 00:11:37;;;;;;;14.77;4.63;;;;;;;4.24;98.68;101288.69;681934;28;1604;-51
2021/11/08 00:11:58;;;;;;;12.23;4.78;;;;;;;4.25;98.63;101282.69;684632;28;1245;-50
2021/11/08 00:12:21;;;;;;;12.75;4.45;;;;;;;4.24;98.96;101287.81;684245;28;1162;-50
2021/11/08 00:12:42;;;;;;;13.15;4.72;;;;;;;4.25;98.75;101292.13;682645;28;1189;-50
2021/11/08 00:13:05;;;;;;;12.30;4.88;;;;;;;4.30;99.38;101287.97;683107;28;1057;-50
2021/11/08 00:13:26;;;;;;;12.90;4.70;;;;;;;4.29;99.73;101293.13;682305;28;4569;-51
2021/11/08 00:13:46;;;;;;;11.55;4.80;;;;;;;4.23;99.56;101286.03;682944;28;1159;-54
2021/11/08 00:14:11;;;;;;;13.57;5.03;;;;;;;4.21;99.66;101292.88;681757;28;1123;-56
2021/11/08 00:14:31;;;;;;;12.02;4.38;;;;;;;4.29;99.30;101287.94;682849;28;3656;-50
2021/11/08 00:14:56;;;;;;;10.33;4.17;;;;;;;4.40;98.96;101292.63;683193;28;1262;-50
2021/11/08 00:15:18;;;;;;;12.10;4.60;;;;;;;4.52;98.32;101296.41;682981;28;1099;-50
2021/11/08 00:17:04;;;;;;;11.73;4.40;;;;;;;4.40;98.61;101289.13;682842;28;1926;-50
2021/11/08 00:18:13;;;;;;;11.07;4.50;;;;;;;4.51;98.36;101300.69;682631;28;3476;-52
2021/11/08 00:20:04;;;;;;;12.40;4.20;;;;;;;4.45;97.63;101297.06;682500;28;972;-53
2021/11/08 00:20:32;;;;;;;10.40;4.28;;;;;;;4.39;97.92;101296.03;683328;28;1100;-50
2021/11/08 00:20:54;;;;;;;11.27;3.90;;;;;;;4.41;97.76;101299.53;683436;28;2891;-51
2021/11/08 00:21:18;;;;;;;11.30;4.18;;;;;;;4.48;97.83;101297.16;684012;28;3187;-50
2021/11/08 00:21:46;;;;;;;10.27;3.97;;;;;;;4.55;97.65;101296.50;681784;28;2104;-51
2021/11/08 00:22:06;;;;;;;10.25;3.67;;;;;;;4.64;97.30;101295.88;682331;28;1573;-52
2021/11/08 00:22:27;;;;;;;12.67;4.03;;;;;;;4.62;97.71;101293.25;682735;28;4304;-50
2021/11/08 00:22:48;;;;;;;15.18;4.50;;;;;;;4.62;97.96;101293.25;683975;28;1027;-55
2021/11/08 00:23:09;;;;;;;12.07;4.13;;;;;;;4.57;97.62;101294.84;684075;28;1301;-52
2021/11/08 00:23:30;;;;;;;13.02;4.10;;;;;;;4.52;97.99;101291.25;683667;28;1103;-54
2021/11/08 00:23:53;;;;;;;13.17;4.03;;;;;;;4.48;97.91;101291.97;681623;28;1421;-50
2021/11/08 00:24:17;;;;;;;12.00;3.90;;;;;;;4.50;98.36;101296.38;680568;28;1060;-53
2021/11/08 00:24:39;;;;;;;11.32;4.10;;;;;;;4.55;98.47;101296.50;682110;28;1205;-50
2021/11/08 00:25:02;;;;;;;13.05;4.15;;;;;;;4.60;97.68;101298.41;681179;28;3632;-50
2021/11/08 00:25:22;;;;;;;13.82;4.13;;;;;;;4.63;97.59;101291.56;680301;28;4366;-52
2021/11/08 00:25:44;;;;;;;13.55;4.10;;;;;;;4.59;97.74;101291.44;681677;28;1499;-54
2021/11/08 00:26:05;;;;;;;12.48;4.15;;;;;;;4.55;97.88;101291.31;683933;28;1460;-52
2021/11/08 00:26:25;;;;;;;13.13;3.97;;;;;;;4.50;98.46;101291.19;683968;28;1031;-51
2021/11/08 00:26:46;;;;;;;16.30;4.32;;;;;;;4.47;98.57;101296.25;683757;28;1044;-55
2021/11/08 00:27:06;;;;;;;13.15;4.28;;;;;;;4.43;98.62;101291.81;683225;28;1266;-52
2021/11/08 00:27:27;;;;;;;11.60;4.10;;;;;;;4.41;98.79;101296.09;683083;28;1215;-51
2021/11/08 00:27:47;;;;;;;12.55;4.15;;;;;;;4.41;98.22;101294.38;682594;28;986;-52
2021/11/08 00:28:13;;;;;;;11.57;4.00;;;;;;;4.49;97.88;101296.34;682624;28;4630;-54
2021/11/08 00:28:33;;;;;;;10.52;3.75;;;;;;;4.52;98.20;101292.09;680721;29;2440;-52
2021/11/08 00:28:54;;;;;;;9.83;3.77;;;;;;;4.51;98.27;101290.34;680472;28;1197;-50
2021/11/08 00:29:15;;;;;;;10.50;4.00;;;;;;;4.48;99.12;101286.81;681259;28;1016;-52
2021/11/08 00:29:37;;;;;;;11.63;4.28;;;;;;;4.45;98.38;101292.75;683456;28;1138;-51
2021/11/08 00:29:58;;;;;;;10.65;4.18;;;;;;;4.42;98.71;101293.53;681243;29;1159;-51
2021/11/08 00:30:18;;;;;;;13.10;4.43;;;;;;;4.39;98.89;101300.34;682055;28;1025;-52
2021/11/08 00:30:39;;;;;;;15.07;4.28;;;;;;;4.34;99.36;101299.31;683287;28;1088;-52
2021/11/08 00:31:00;;;;;;;13.95;4.60;;;;;;;4.32;99.57;101290.63;684013;28;1072;-52
2021/11/08 00:31:21;;;;;;;12.87;4.43;;;;;;;4.31;99.75;101296.66;682610;28;4633;-53
2021/11/08 00:31:41;;;;;;;12.48;4.20;;;;;;;4.29;99.99;101296.56;683778;28;1139;-54
2021/11/08 00:32:02;;;;;;;14.75;4.10;;;;;;;4.30;99.51;101294.88;682253;28;3496;-51
2021/11/08 00:32:22;;;;;;;12.50;4.30;;;;;;;4.30;99.04;101298.34;681576;28;1328;-50
2021/11/08 00:32:42;;;;;;;13.43;4.20;;;;;;;4.34;99.40;101292.44;682668;28;1477;-52
2021/11/08 00:33:04;;;;;;;13.20;3.93;;;;;;;4.39;98.95;101295.19;683877;28;1102;-54
2021/11/08 00:33:25;;;;;;;13.50;4.20;;;;;;;4.44;99.12;101296.16;681219;28;1134;-52
2021/11/08 00:33:45;;;;;;;13.57;4.03;;;;;;;4.51;98.89;101294.66;683376;28;1072;-50
2021/11/08 00:34:06;;;;;;;12.40;4.17;;;;;;;4.49;98.72;101301.50;683121;28;1093;-50
2021/11/08 00:34:27;;;;;;;10.75;3.97;;;;;;;4.46;98.67;101296.22;682576;28;4534;-51
2021/11/08 00:34:48;;;;;;;12.45;3.72;;;;;;;4.42;99.51;101298.72;682026;28;1445;-51
2021/11/08 00:35:09;;;;;;;11.07;3.75;;;;;;;4.40;99.54;101296.91;683983;28;1258;-50
2021/11/08 00:35:30;;;;;;;10.65;3.90;;;;;;;4.36;99.05;101295.06;682041;28;2034;-53
2021/11/08 00:35:57;;;;;;;11.48;3.92;;;;;;;4.33;99.11;101305.31;683066;28;1298;-52
2021/11/08 00:36:18;;;;;;;12.02;4.03;;;;;;;4.32;99.39;101295.78;685175;28;1257;-51
2021/11/08 00:36:38;;;;;;;12.07;4.27;;;;;;;4.33;99.22;101301.00;686297;28;1068;-55
2021/11/08 00:36:58;;;;;;;14.55;4.70;;;;;;;4.33;99.31;101294.97;685879;28;1915;-52
2021/11/08 00:37:19;;;;;;;12.17;4.20;;;;;;;4.32;99.93;101294.09;682976;28;4576;-52
2021/11/08 00:37:39;;;;;;;11.43;3.92;;;;;;;4.28;99.87;101296.53;683379;28;1049;-51
2021/11/08 00:38:00;;;;;;;9.90;4.10;;;;;;;4.22;100.00;101303.28;683850;28;1379;-52
2021/11/08 00:38:21;;;;;;;11.38;4.13;;;;;;;4.19;100.00;101300.59;682594;28;3582;-55
2021/11/08 00:38:41;;;;;;;11.82;4.55;;;;;;;4.21;100.00;101301.53;681884;28;2293;-51
2021/11/08 00:39:03;;;;;;;10.93;4.40;;;;;;;4.28;99.76;101309.47;683293;28;1606;-50
2021/11/08 00:39:25;;;;;;;12.20;4.25;;;;;;;4.35;100.00;101299.38;682687;28;3763;-52
2021/11/08 00:39:45;;;;;;;10.00;4.18;;;;;;;4.40;99.67;101297.81;683089;28;1059;-50
2021/11/08 00:40:06;;;;;;;10.98;4.10;;;;;;;4.39;99.98;101301.22;682787;28;1085;-51
2021/11/08 00:40:27;;;;;;;11.18;4.05;;;;;;;4.37;99.81;101297.69;682940;28;4398;-51
2021/11/08 00:40:48;;;;;;;12.00;4.37;;;;;;;4.34;99.76;101300.19;684996;28;1049;-50
2021/11/08 00:41:08;;;;;;;12.37;4.37;;;;;;;4.31;100.00;101313.03;683644;28;1033;-50
2021/11/08 00:41:29;;;;;;;9.80;4.20;;;;;;;4.36;99.99;101301.13;682872;28;3606;-54
2021/11/08 00:41:49;;;;;;;9.40;3.80;;;;;;;4.41;99.21;101307.31;682137;28;1135;-53
2021/11/08 00:42:09;;;;;;;10.52;3.65;;;;;;;4.45;98.84;101295.34;683766;28;1332;-52
2021/11/08 00:42:30;;;;;;;9.10;3.60;;;;;;;4.52;98.66;101299.00;683841;28;1076;-50
2021/11/08 00:42:50;;;;;;;10.50;4.10;;;;;;;4.55;98.72;101296.50;684715;28;1262;-53
2021/11/08 00:43:12;;;;;;;10.53;4.10;;;;;;;4.56;99.24;101293.09;682914;28;4590;-51
2021/11/08 00:43:33;;;;;;;12.20;4.25;;;;;;;4.52;99.87;101301.59;682661;28;1341;-52
2021/11/08 00:43:54;;;;;;;11.70;4.07;;;;;;;4.45;99.36;101297.06;683243;28;1314;-54
2021/11/08 00:44:14;;;;;;;11.07;4.32;;;;;;;4.39;99.64;101297.75;681739;28;1805;-51
2021/11/08 00:44:34;;;;;;;13.03;4.13;;;;;;;4.38;100.00;101299.44;682226;28;3449;-52
2021/11/08 00:44:57;;;;;;;11.15;3.95;;;;;;;4.38;99.37;101291.69;683470;28;1125;-52
2021/11/08 00:45:17;;;;;;;10.77;3.97;;;;;;;4.35;99.77;101293.31;682852;28;1125;-52
2021/11/08 00:45:38;;;;;;;14.02;4.20;;;;;;;4.32;99.58;101299.28;683590;28;1332;-53
2021/11/08 00:45:59;;;;;;;11.93;4.32;;;;;;;4.32;100.00;101294.09;682793;28;1226;-52
2021/11/08 00:46:19;;;;;;;10.73;4.20;;;;;;;4.34;99.95;101295.00;682307;28;4591;-51
2021/11/08 00:46:39;;;;;;;11.77;4.25;;;;;;;4.32;100.00;101288.94;683974;28;1353;-54
2021/11/08 00:47:00;;;;;;;11.67;4.27;;;;;;;4.32;99.96;101293.22;683963;28;1145;-51
2021/11/08 00:47:20;;;;;;;11.80;3.88;;;;;;;4.35;99.97;101285.56;682807;28;3539;-51
2021/11/08 00:47:41;;;;;;;11.97;4.07;;;;;;;4.38;100.00;101294.28;682849;28;2416;-54
2021/11/08 00:48:02;;;;;;;12.93;4.15;;;;;;;4.37;99.57;101289.06;682045;28;1073;-51
2021/11/08 00:48:28;;;;;;;13.27;4.28;;;;;;;4.40;99.73;101291.72;680253;28;2075;-54
2021/11/08 00:48:50;;;;;;;10.20;3.88;;;;;;;4.43;99.77;101292.72;680785;28;1250;-55
2021/11/08 00:49:11;;;;;;;12.30;4.45;;;;;;;4.40;100.00;101292.63;679938;28;4460;-51
2021/11/08 00:49:31;;;;;;;14.20;4.57;;;;;;;4.38;100.00;101294.28;678456;29;1097;-54
2021/11/08 00:49:53;;;;;;;12.15;4.47;;;;;;;4.36;100.00;101289.88;679983;29;1577;-52
2021/11/08 00:50:14;;;;;;;10.48;4.30;;;;;;;4.36;99.57;101295.06;681452;28;3754;-51
2021/11/08 00:50:35;;;;;;;14.03;4.80;;;;;;;4.35;99.56;101294.19;682544;28;1065;-52
2021/11/08 00:50:55;;;;;;;14.57;5.20;;;;;;;4.34;99.53;101292.44;682249;28;1152;-54
2021/11/08 00:51:16;;;;;;;12.55;4.38;;;;;;;4.41;99.89;101298.69;682718;28;1303;-51
2021/11/08 00:51:40;;;;;;;11.23;3.80;;;;;;;4.45;99.72;101297.06;683785;28;1196;-52
2021/11/08 00:52:01;;;;;;;10.82;4.05;;;;;;;4.44;100.00;101293.59;682710;28;1302;-50
2021/11/08 00:52:21;;;;;;;11.47;4.23;;;;;;;4.43;99.76;101295.31;682439;28;4592;-52
2021/11/08 00:52:42;;;;;;;13.27;4.50;;;;;;;4.41;99.74;101289.19;682754;28;1175;-50
2021/11/08 00:53:04;;;;;;;12.57;4.28;;;;;;;4.40;99.52;101295.22;681913;28;3118;-52
2021/11/08 00:53:25;;;;;;;11.80;4.50;;;;;;;4.38;99.99;101294.28;683061;28;3312;-52
2021/11/08 00:53:47;;;;;;;15.43;4.87;;;;;;;4.36;99.77;101298.53;682163;28;1492;-51
2021/11/08 00:54:14;;;;;;;10.38;4.20;;;;;;;4.33;100.00;101295.84;681753;28;1248;-51
2021/11/08 00:54:35;;;;;;;13.60;4.25;;;;;;;4.32;100.00;101298.38;681690;28;1192;-53
2021/11/08 00:54:58;;;;;;;15.27;4.40;;;;;;;4.27;99.62;101298.25;684090;28;1235;-56
2021/11/08 00:55:18;;;;;;;12.68;4.00;;;;;;;4.25;99.84;101302.47;682949;28;4731;-51
2021/11/08 00:55:41;;;;;;;11.57;4.20;;;;;;;4.30;99.61;101297.47;682817;28;1243;-52
2021/11/08 00:56:05;;;;;;;12.23;4.15;;;;;;;4.36;99.43;101295.06;682990;28;3119;-51
2021/11/08 00:56:25;;;;;;;10.50;3.80;;;;;;;4.39;99.12;101300.34;683429;28;3619;-51
2021/11/08 00:56:52;;;;;;;13.25;4.20;;;;;;;4.39;99.57;101300.34;682292;28;1910;-52
2021/11/08 00:57:13;;;;;;;12.05;4.03;;;;;;;4.44;99.01;101296.16;683757;28;1243;-50
2021/11/08 00:57:35;;;;;;;9.07;3.95;;;;;;;4.45;98.23;101299.66;686431;28;1235;-51
2021/11/08 00:57:58;;;;;;;10.55;4.05;;;;;;;4.42;99.14;101301.31;685934;28;1258;-52
2021/11/08 00:58:24;;;;;;;10.65;3.90;;;;;;;4.34;99.05;101300.19;683864;28;4607;-52
2021/11/08 00:58:45;;;;;;;12.82;4.18;;;;;;;4.30;99.01;101300.94;684110;28;1209;-54
2021/11/08 00:59:08;;;;;;;12.55;3.95;;;;;;;4.28;99.39;101301.69;684484;28;1860;-53
2021/11/08 00:59:29;;;;;;;11.35;4.13;;;;;;;4.26;99.23;101299.97;682852;28;3896;-50
2021/11/08 00:59:52;;;;;;;13.93;4.40;;;;;;;4.24;99.38;101301.63;681663;28;1163;-52
2021/11/08 01:00:15;;;;;;;12.48;4.60;;;;;;;4.24;99.64;101305.94;682117;28;1223;-53
2021/11/08 01:00:36;;;;;;;13.77;4.55;;;;;;;4.23;99.99;101306.75;682068;28;1263;-52
2021/11/08 01:01:01;;;;;;;13.90;4.37;;;;;;;4.21;100.00;101300.63;682900;28;912;-51
2021/11/08 01:01:22;;;;;;;17.23;4.65;;;;;;;4.22;99.57;101308.47;682594;28;4797;-53
2021/11/08 01:01:46;;;;;;;17.48;5.30;;;;;;;4.23;99.85;101299.84;683246;28;1437;-51
2021/11/08 01:02:06;;;;;;;14.18;4.43;;;;;;;4.24;99.94;101301.63;682635;28;3476;-53
2021/11/08 01:02:29;;;;;;;12.82;4.30;;;;;;;4.23;99.46;101292.09;684337;28;2400;-54
2021/11/08 01:02:49;;;;;;;11.90;3.80;;;;;;;4.23;99.51;101298.97;684649;28;1084;-51
2021/11/08 01:03:12;;;;;;;14.37;4.33;;;;;;;4.21;99.42;101303.22;682793;28;1133;-54
2021/11/08 01:03:35;;;;;;;13.85;4.25;;;;;;;4.24;99.77;101300.75;682545;28;1243;-52
2021/11/08 01:03:56;;;;;;;12.13;4.63;;;;;;;4.26;99.18;101299.06;683788;28;1326;-51
2021/11/08 01:04:20;;;;;;;14.60;4.70;;;;;;;4.25;99.39;101297.31;683338;28;4406;-50
2021/11/08 01:04:41;;;;;;;12.40;4.15;;;;;;;4.25;98.81;101305.06;683213;28;1326;-52
2021/11/08 01:05:04;;;;;;;14.70;4.40;;;;;;;4.21;99.16;101303.22;683129;28;3510;-56
2021/11/08 01:05:25;;;;;;;13.25;4.07;;;;;;;4.17;99.98;101299.66;682197;28;3532;-52
2021/11/08 01:05:45;;;;;;;13.20;4.10;;;;;;;4.19;99.51;101305.75;682005;28;1430;-51
2021/11/08 01:06:07;;;;;;;13.02;4.25;;;;;;;4.20;99.64;101304.06;683597;28;1386;-51
2021/11/08 01:06:28;;;;;;;11.65;4.50;;;;;;;4.22;99.63;101304.97;682471;28;1103;-53
2021/11/08 01:06:51;;;;;;;13.15;4.60;;;;;;;4.20;99.70;101304.94;682016;28;1164;-50
2021/11/08 01:07:12;;;;;;;11.50;4.47;;;;;;;4.18;100.00;101296.25;682348;28;4434;-51
2021/11/08 01:07:32;;;;;;;11.43;4.53;;;;;;;4.18;100.00;101296.25;682447;28;1258;-55
2021/11/08 01:07:53;;;;;;;13.97;4.53;;;;;;;4.21;99.70;101301.53;682571;28;2561;-51
2021/11/08 01:08:15;;;;;;;11.90;4.00;;;;;;;4.25;100.00;101305.97;681522;28;3728;-50
2021/11/08 01:08:36;;;;;;;12.25;4.03;;;;;;;4.29;99.66;101296.56;682371;28;1453;-51
2021/11/08 01:08:56;;;;;;;10.73;3.92;;;;;;;4.31;100.00;101296.66;683574;28;1251;-51
2021/11/08 01:09:17;;;;;;;11.83;4.10;;;;;;;4.30;99.62;101298.34;683894;28;1373;-51
2021/11/08 01:09:37;;;;;;;12.70;4.53;;;;;;;4.27;99.88;101293.06;683024;28;1302;-54
2021/11/08 01:09:59;;;;;;;14.63;4.90;;;;;;;4.24;100.00;101300.75;683566;28;1244;-54
2021/11/08 01:10:20;;;;;;;11.73;4.20;;;;;;;4.25;100.00;101302.47;683645;28;4671;-50
2021/11/08 01:10:40;;;;;;;12.40;4.40;;;;;;;4.29;99.51;101295.72;683214;28;1385;-53
2021/11/08 01:11:01;;;;;;;12.52;4.53;;;;;;;4.27;99.85;101295.66;681916;28;3170;-51
2021/11/08 01:11:21;;;;;;;13.93;4.50;;;;;;;4.22;100.00;101302.41;680597;29;3375;-53
2021/11/08 01:11:42;;;;;;;12.52;4.15;;;;;;;4.18;100.00;101297.94;679382;28;1129;-50
2021/11/08 01:12:03;;;;;;;13.48;4.45;;;;;;;4.13;100.00;101300.41;678536;29;1375;-54
2021/11/08 01:12:25;;;;;;;14.23;4.55;;;;;;;4.13;100.00;101300.41;678749;29;1406;-53
2021/11/08 01:12:47;;;;;;;11.68;4.35;;;;;;;4.18;100.00;101297.94;678276;29;1450;-52
2021/11/08 01:13:07;;;;;;;12.32;4.40;;;;;;;4.24;100.00;101301.63;681367;28;4387;-52
2021/11/08 01:13:28;;;;;;;12.17;4.03;;;;;;;4.31;100.00;101297.50;680320;29;1209;-51
2021/11/08 01:13:48;;;;;;;12.70;4.37;;;;;;;4.30;100.00;101300.94;680593;28;3063;-50
2021/11/08 01:14:09;;;;;;;12.82;4.43;;;;;;;4.25;100.00;101302.47;682785;28;2215;-51
2021/11/08 01:14:30;;;;;;;13.80;4.40;;;;;;;4.22;100.00;101297.22;683183;28;1323;-51
2021/11/08 01:14:50;;;;;;;13.90;4.83;;;;;;;4.21;100.00;101300.63;682797;28;1192;-50
2021/11/08 01:15:13;;;;;;;14.80;4.85;;;;;;;4.21;100.00;101303.22;681923;28;1271;-51
2021/11/08 01:15:33;;;;;;;15.20;4.45;;;;;;;4.21;100.00;101300.63;683354;28;1230;-51
2021/11/08 01:15:57;;;;;;;12.93;4.60;;;;;;;4.23;100.00;101304.16;682691;28;1128;-53
2021/11/08 01:16:21;;;;;;;15.43;4.70;;;;;;;4.27;99.93;101311.19;681884;28;4582;-51
2021/11/08 01:16:41;;;;;;;11.07;4.03;;;;;;;4.35;100.00;101299.38;682950;28;1422;-52
2021/11/08 01:17:04;;;;;;;11.07;4.20;;;;;;;4.39;99.87;101298.63;682371;28;3301;-50
2021/11/08 01:17:25;;;;;;;14.35;4.95;;;;;;;4.36;100.00;101306.31;680525;29;1382;-51
2021/11/08 01:17:45;;;;;;;15.57;4.97;;;;;;;4.35;100.00;101301.09;679576;28;1397;-52
2021/11/08 01:18:06;;;;;;;12.67;4.40;;;;;;;4.32;100.00;101306.16;680409;29;1579;-50
2021/11/08 01:18:27;;;;;;;15.57;4.45;;;;;;;4.29;100.00;101313.81;680148;29;1089;-50
2021/11/08 01:18:52;;;;;;;14.25;4.43;;;;;;;4.26;100.00;101309.44;680226;28;1171;-52
2021/11/08 01:19:13;;;;;;;10.30;4.40;;;;;;;4.29;100.00;101308.66;679931;28;4623;-50
2021/11/08 01:19:35;;;;;;;10.30;4.60;;;;;;;4.32;100.00;101308.72;683246;28;1093;-50
2021/11/08 01:19:56;;;;;;;10.02;4.00;;;;;;;4.36;100.00;101314.06;682644;28;3201;-52
2021/11/08 01:20:16;;;;;;;11.65;4.18;;;;;;;4.34;100.00;101312.25;682594;28;3422;-50
2021/11/08 01:20:44;;;;;;;13.00;4.38;;;;;;;4.31;100.00;101312.19;681535;28;1151;-51
2021/11/08 01:21:06;;;;;;;13.48;4.38;;;;;;;4.30;100.00;101311.28;682481;28;1382;-51
2021/11/08 01:21:29;;;;;;;14.35;4.22;;;;;;;4.28;100.00;101315.53;680212;29;1058;-50
2021/11/08 01:21:50;;;;;;;13.77;4.40;;;;;;;4.27;100.00;101318.97;680664;28;1092;-52
2021/11/08 01:22:18;;;;;;;11.95;4.60;;;;;;;4.30;100.00;101319.03;680425;28;4469;-51
2021/11/08 01:22:39;;;;;;;11.60;4.00;;;;;;;4.36;100.00;101311.50;682327;28;1290;-52
2021/11/08 01:23:03;;;;;;;10.38;3.90;;;;;;;4.39;100.00;101308.97;682521;28;3403;-51
2021/11/08 01:23:27;;;;;;;12.38;4.38;;;;;;;4.42;99.93;101311.66;682591;28;1377;-51
2021/11/08 01:23:48;;;;;;;11.85;4.45;;;;;;;4.45;100.00;101318.66;681834;28;1530;-50
2021/11/08 01:24:09;;;;;;;11.35;4.18;;;;;;;4.45;100.00;101307.44;681493;28;1234;-51
2021/11/08 01:24:33;;;;;;;13.07;4.30;;;;;;;4.42;100.00;101311.66;682338;28;1140;-52
2021/11/08 01:24:55;;;;;;;12.48;4.43;;;;;;;4.42;100.00;101309.06;682698;28;1151;-53
2021/11/08 01:25:16;;;;;;;12.13;4.32;;;;;;;4.45;99.73;101317.78;682639;28;4651;-56
2021/11/08 01:25:36;;;;;;;11.23;4.13;;;;;;;4.48;100.00;101313.56;682694;28;1275;-51
2021/11/08 01:26:03;;;;;;;9.95;4.15;;;;;;;4.52;99.56;101317.13;682855;28;3454;-52
2021/11/08 01:26:24;;;;;;;12.48;4.20;;;;;;;4.53;99.63;101319.75;683620;28;1317;-51
2021/11/08 01:26:47;;;;;;;14.63;4.40;;;;;;;4.53;100.00;101313.72;684372;28;1413;-52
2021/11/08 01:27:07;;;;;;;11.80;4.20;;;;;;;4.49;99.80;101312.72;685278;28;1143;-51
2021/11/08 01:27:36;;;;;;;14.10;4.47;;;;;;;4.48;99.89;101310.97;684498;28;1199;-52
2021/11/08 01:27:58;;;;;;;13.10;4.05;;;;;;;4.52;99.23;101318.00;685214;28;1381;-52
2021/11/08 01:28:18;;;;;;;13.65;4.40;;;;;;;4.58;99.10;101317.31;684483;28;4548;-50
2021/11/08 01:28:40;;;;;;;11.73;4.30;;;;;;;4.60;99.34;101320.84;681906;28;2137;-53
2021/11/08 01:29:01;;;;;;;14.30;4.50;;;;;;;4.56;100.00;101319.84;682589;28;1190;-51
2021/11/08 01:29:21;;;;;;;13.10;4.53;;;;;;;4.55;100.00;101322.41;682417;28;1440;-52
2021/11/08 01:29:41;;;;;;;13.90;4.60;;;;;;;4.52;100.00;101322.31;679432;28;1465;-50
2021/11/08 01:30:08;;;;;;;13.88;4.50;;;;;;;4.50;100.00;101324.84;678679;29;1386;-50
2021/11/08 01:30:28;;;;;;;12.32;4.45;;;;;;;4.50;100.00;101332.63;679776;28;1259;-50
2021/11/08 01:30:49;;;;;;;11.75;4.43;;;;;;;4.50;100.00;101318.78;681723;28;1214;-50
2021/11/08 01:31:11;;;;;;;10.67;4.10;;;;;;;4.49;100.00;101317.91;683391;28;4637;-49
2021/11/08 01:31:32;;;;;;;12.52;4.30;;;;;;;4.48;100.00;101325.63;682879;28;1151;-49
2021/11/08 01:31:52;;;;;;;13.18;4.68;;;;;;;4.48;100.00;101323.03;680816;28;1972;-50
2021/11/08 01:32:13;;;;;;;11.77;4.37;;;;;;;4.49;100.00;101317.03;682648;28;1093;-49
2021/11/08 01:32:33;;;;;;;11.90;4.17;;;;;;;4.47;100.00;101316.97;682685;28;1383;-50
2021/11/08 01:33:06;;;;;;;13.95;4.35;;;;;;;4.46;100.00;101316.94;683767;28;1167;-51
2021/11/08 01:33:26;;;;;;;13.35;4.10;;;;;;;4.46;100.00;101314.34;682499;28;1390;-50
2021/11/08 01:33:49;;;;;;;11.77;4.30;;;;;;;4.46;100.00;101317.81;682693;28;894;-51
2021/11/08 01:34:10;;;;;;;18.38;5.00;;;;;;;4.47;100.00;101318.69;681818;28;4510;-54
2021/11/08 01:34:30;;;;;;;15.27;4.50;;;;;;;4.45;100.00;101313.47;682858;28;1078;-52
2021/11/08 01:34:51;;;;;;;13.88;4.38;;;;;;;4.46;100.00;101311.75;683048;28;1390;-50
2021/11/08 01:35:12;;;;;;;12.50;4.60;;;;;;;4.46;100.00;101316.94;682756;28;3238;-50
2021/11/08 01:36:08;;;;;;;13.05;4.80;;;;;;;4.43;100.00;101316.00;681907;28;1385;-50
2021/11/08 01:36:34;;;;;;;13.95;4.20;;;;;;;4.45;100.00;101315.19;682490;28;971;-52
2021/11/08 01:36:57;;;;;;;13.95;4.45;;;;;;;4.44;100.00;101319.47;683141;28;1914;-49
2021/11/08 01:37:20;;;;;;;12.80;4.22;;;;;;;4.43;100.00;101323.78;681187;28;4509;-53
2021/11/08 01:37:49;;;;;;;13.32;4.50;;;;;;;4.43;100.00;101326.38;683604;28;1063;-50
2021/11/08 01:38:22;;;;;;;13.15;4.45;;;;;;;4.43;100.00;101326.38;682912;28;1880;-50
2021/11/08 01:38:48;;;;;;;12.30;4.55;;;;;;;4.49;100.00;101330.00;681942;28;1501;-53
2021/11/08 01:39:15;;;;;;;11.70;4.40;;;;;;;4.51;100.00;101328.31;682805;28;1234;-51
2021/11/08 01:39:37;;;;;;;12.45;4.10;;;;;;;4.50;100.00;101324.84;683801;28;4020;-49
2021/11/08 01:39:58;;;;;;;12.50;4.15;;;;;;;4.53;100.00;101330.13;682773;28;1467;-50
2021/11/08 01:40:18;;;;;;;12.05;4.10;;;;;;;4.53;100.00;101327.53;682605;28;4550;-50
2021/11/08 01:40:41;;;;;;;14.18;4.05;;;;;;;4.53;100.00;101324.06;683289;28;955;-49
2021/11/08 01:41:01;;;;;;;13.10;4.10;;;;;;;4.54;100.00;101331.00;683150;28;3205;-50
2021/11/08 01:41:25;;;;;;;11.40;4.22;;;;;;;4.56;100.00;101330.22;682280;28;3544;-52
2021/11/08 01:41:46;;;;;;;10.82;3.97;;;;;;;4.61;99.75;101322.59;681527;28;1457;-54
2021/11/08 01:42:10;;;;;;;10.82;3.90;;;;;;;4.66;99.24;101321.00;681946;28;1036;-52
2021/11/08 01:42:31;;;;;;;10.02;3.80;;;;;;;4.65;99.33;101323.56;683927;28;1139;-50
2021/11/08 01:42:51;;;;;;;11.40;3.90;;;;;;;4.61;100.00;101320.00;682091;28;913;-52
2021/11/08 01:43:12;;;;;;;12.53;4.23;;;;;;;4.59;100.00;101326.84;681850;28;4781;-50
2021/11/08 01:43:33;;;;;;;13.15;4.43;;;;;;;4.58;100.00;101322.47;682325;28;1254;-51
2021/11/08 01:43:54;;;;;;;12.35;4.30;;;;;;;4.59;100.00;101326.84;681081;28;1087;-51
2021/11/08 01:44:15;;;;;;;12.18;4.30;;;;;;;4.59;100.00;101319.06;680987;28;3768;-51
2021/11/08 01:44:36;;;;;;;12.82;4.43;;;;;;;4.61;100.00;101322.59;682140;28;2364;-52
2021/11/08 01:44:57;;;;;;;11.23;3.97;;;;;;;4.59;100.00;101325.13;681504;28;1381;-50
2021/11/08 01:45:19;;;;;;;10.33;4.40;;;;;;;4.59;99.85;101317.34;681298;29;1294;-53
2021/11/08 01:45:40;;;;;;;11.35;4.70;;;;;;;4.59;100.00;101330.28;680522;28;927;-52
2021/11/08 01:46:01;;;;;;;13.25;4.55;;;;;;;4.56;100.00;101325.03;680993;29;991;-51
2021/11/08 01:46:23;;;;;;;12.57;4.40;;;;;;;4.56;100.00;101324.16;680341;28;4602;-54
2021/11/08 01:46:44;;;;;;;11.48;4.63;;;;;;;4.55;100.00;101325.00;680570;28;1110;-50
2021/11/08 01:47:05;;;;;;;13.10;4.60;;;;;;;4.56;100.00;101324.16;683331;28;3263;-51
2021/11/08 01:47:28;;;;;;;11.30;4.10;;;;;;;4.59;100.00;101324.25;682427;28;3521;-51
2021/11/08 01:47:48;;;;;;;11.48;4.02;;;;;;;4.65;100.00;101323.56;682169;28;1334;-51